Terminal Aerodrome Forecast
Issued by NWS

Home | Current Version | Previous Version | Text Only | Print | Product List | Glossary On
Versions: 1 2 3 4 5 6 7 8 9 10 11 12 13 14 15 16 17 18 19 20
586
FTUS44 KBMX 272348 CCA
TAFMGM
TAF COR
KMGM 272348Z 2800/2824 VRB03KT P6SM VCSH SCT005 BKN150 OVC250
     FM280200 09004KT 6SM BR SCT004 OVC015
     FM280500 09004KT 3SM BR OVC007
     FM281000 10004KT 2SM BR OVC004
     FM281700 17007KT P6SM OVC012=

USA.gov is the U.S. government's official web portal to all federal, state and local government web resources and services.